Time;durP1;ratioP1;P1;durP2;ratioP2;P2;SDS_P1;SDS_P2;PMS_P1;PMS_P2;Temp;Humidity;BMP_temperature;BMP_pressure;BME280_temperature;BME280_humidity;BME280_pressure;Samples;Min_cycle;Max_cycle;Signal;HPM_P1;HPM_P2
2021/09/08 00:01:41;;;;;;;14.00;11.80;;;16.40;84.60;;;;;;5087336;28;20442;-80
2021/09/08 00:04:08;;;;;;;13.50;12.07;;;16.40;84.40;;;;;;5083392;28;20484;-80
2021/09/08 00:06:35;;;;;;;14.10;12.10;;;16.40;84.70;;;;;;5096725;28;20458;-80
2021/09/08 00:14:47;;;;;;;15.47;13.10;;;16.30;85.40;;;;;;5053344;28;20216;-79
2021/09/08 00:17:18;;;;;;;16.40;12.13;;;16.30;85.60;;;;;;5555548;22;20507;-79
2021/09/08 00:19:45;;;;;;;14.53;12.67;;;16.30;85.40;;;;;;5067883;28;20460;-80
2021/09/08 00:22:16;;;;;;;12.30;11.10;;;16.20;85.40;;;;;;5069182;28;20439;-79
2021/09/08 00:24:45;;;;;;;13.73;12.30;;;16.20;85.50;;;;;;5073862;28;20435;-80
2021/09/08 00:27:12;;;;;;;13.10;11.80;;;16.20;85.80;;;;;;5072762;28;20452;-80
2021/09/08 00:29:44;;;;;;;15.87;11.60;;;16.20;85.40;;;;;;5069201;28;20578;-80
2021/09/08 00:32:11;;;;;;;14.43;12.30;;;16.20;85.20;;;;;;5062593;28;20531;-78
2021/09/08 00:34:40;;;;;;;16.30;13.57;;;16.20;84.90;;;;;;5065607;28;20500;-80
2021/09/08 00:37:08;;;;;;;16.00;12.97;;;16.20;84.60;;;;;;5065375;28;20810;-79
2021/09/08 00:39:34;;;;;;;15.77;13.80;;;16.20;84.60;;;;;;5058042;28;20518;-79
2021/09/08 00:42:08;;;;;;;13.57;11.83;;;16.20;84.40;;;;;;5060103;28;20428;-78
2021/09/08 00:44:35;;;;;;;14.60;13.03;;;16.20;83.90;;;;;;5058594;28;20469;-78
2021/09/08 00:47:03;;;;;;;16.23;12.98;;;16.20;84.30;;;;;;5058886;28;20555;-78
2021/09/08 00:49:30;;;;;;;14.43;12.47;;;16.20;84.60;;;;;;5058057;28;20854;-78
2021/09/08 00:52:05;;;;;;;14.80;12.83;;;16.20;85.30;;;;;;5053006;28;20468;-79
2021/09/08 00:54:34;;;;;;;15.90;11.87;;;16.10;85.30;;;;;;5056298;28;20458;-78
2021/09/08 00:57:06;;;;;;;15.40;12.67;;;16.10;85.50;;;;;;5069270;28;20445;-79
2021/09/08 00:59:33;;;;;;;14.90;13.10;;;16.00;86.00;;;;;;5066298;28;20503;-79
2021/09/08 01:02:16;;;;;;;15.73;13.20;;;16.00;86.00;;;;;;5066715;28;20486;-79
2021/09/08 01:04:43;;;;;;;13.97;12.50;;;16.00;87.20;;;;;;5003807;28;20224;-80
2021/09/08 01:07:12;;;;;;;15.27;13.68;;;15.90;88.90;;;;;;5005384;28;21029;-78
2021/09/08 01:09:40;;;;;;;15.55;13.73;;;15.80;90.00;;;;;;5001477;28;20212;-79
2021/09/08 01:12:08;;;;;;;15.05;13.45;;;15.80;90.40;;;;;;5003908;28;20352;-79
2021/09/08 01:14:35;;;;;;;14.10;12.60;;;15.80;91.00;;;;;;5000621;28;20251;-79
2021/09/08 01:17:02;;;;;;;15.20;13.70;;;15.70;91.30;;;;;;4991631;28;20509;-78
2021/09/08 01:19:29;;;;;;;16.10;13.05;;;15.70;91.70;;;;;;4990883;28;20438;-78
2021/09/08 01:21:55;;;;;;;21.10;14.23;;;15.70;91.80;;;;;;4992035;28;20291;-78
2021/09/08 01:24:24;;;;;;;15.37;13.50;;;15.60;92.00;;;;;;4991507;28;20533;-79
2021/09/08 01:26:53;;;;;;;15.83;14.13;;;15.60;92.40;;;;;;4991473;28;20812;-79
2021/09/08 01:29:20;;;;;;;15.90;14.27;;;15.60;92.50;;;;;;4972471;28;20551;-79
2021/09/08 01:31:52;;;;;;;17.93;13.37;;;15.60;92.30;;;;;;4972309;28;20488;-79
2021/09/08 01:34:20;;;;;;;13.90;12.47;;;15.60;92.30;;;;;;4998559;28;20449;-79
2021/09/08 01:36:46;;;;;;;15.90;14.27;;;15.60;92.00;;;;;;5004992;28;20466;-80
2021/09/08 01:39:16;;;;;;;15.52;13.82;;;15.50;91.60;;;;;;5014661;28;20435;-79
2021/09/08 01:41:45;;;;;;;14.05;12.55;;;15.60;91.60;;;;;;5033403;28;20186;-79
2021/09/08 01:44:12;;;;;;;16.33;14.40;;;15.60;91.40;;;;;;5062267;28;20250;-77
2021/09/08 01:46:39;;;;;;;15.50;13.70;;;15.60;91.00;;;;;;5062121;28;20523;-78
2021/09/08 01:49:05;;;;;;;15.10;13.30;;;15.50;91.10;;;;;;5057052;28;20485;-79
2021/09/08 01:51:32;;;;;;;15.87;14.17;;;15.50;91.20;;;;;;5056612;28;20553;-79
2021/09/08 01:53:59;;;;;;;17.70;15.13;;;15.50;91.30;;;;;;5056989;28;20483;-79
2021/09/08 01:56:26;;;;;;;17.33;13.80;;;15.50;91.70;;;;;;5056862;28;20510;-79
2021/09/08 01:58:54;;;;;;;15.10;13.50;;;15.40;91.70;;;;;;5056223;28;20528;-80
2021/09/08 02:01:25;;;;;;;16.13;14.43;;;15.40;92.10;;;;;;5057331;28;20527;-79
2021/09/08 02:03:52;;;;;;;16.17;13.83;;;15.40;92.30;;;;;;5062213;28;20483;-79
2021/09/08 02:06:24;;;;;;;23.88;14.63;;;15.30;92.30;;;;;;5061048;28;20489;-78
2021/09/08 02:08:52;;;;;;;16.43;14.47;;;15.30;92.90;;;;;;5058604;28;20214;-79
2021/09/08 02:11:19;;;;;;;18.13;15.45;;;15.30;93.20;;;;;;5059793;28;20528;-77
2021/09/08 02:13:46;;;;;;;19.10;14.18;;;15.20;93.10;;;;;;5063900;28;20249;-79
2021/09/08 02:16:18;;;;;;;15.43;13.82;;;15.20;93.00;;;;;;5061664;28;20249;-79
2021/09/08 02:18:46;;;;;;;16.67;14.93;;;15.30;92.80;;;;;;5061124;28;20663;-79
2021/09/08 02:21:13;;;;;;;15.82;13.60;;;15.20;92.60;;;;;;5060986;28;20213;-79
2021/09/08 02:23:40;;;;;;;17.80;15.23;;;15.20;92.50;;;;;;5061880;28;20260;-79
2021/09/08 02:26:07;;;;;;;15.93;14.02;;;15.20;92.70;;;;;;5068259;28;20197;-81
2021/09/08 02:28:33;;;;;;;16.75;14.00;;;15.20;92.40;;;;;;5080000;28;20221;-79
2021/09/08 02:31:00;;;;;;;16.33;14.35;;;15.10;92.30;;;;;;5079605;28;20186;-79
2021/09/08 02:33:29;;;;;;;18.20;14.30;;;15.10;92.70;;;;;;5074693;28;20225;-79
2021/09/08 02:35:56;;;;;;;18.67;14.25;;;15.10;93.10;;;;;;5057165;28;20207;-79
2021/09/08 02:38:23;;;;;;;16.10;14.50;;;15.10;93.00;;;;;;5062150;28;20209;-78
2021/09/08 02:40:50;;;;;;;24.35;14.80;;;15.10;93.00;;;;;;5056566;28;20260;-79
2021/09/08 02:43:17;;;;;;;17.02;14.00;;;15.20;92.00;;;;;;5058225;28;20721;-79
2021/09/08 02:45:43;;;;;;;17.20;14.45;;;15.20;91.60;;;;;;5057471;28;20199;-79
2021/09/08 02:48:10;;;;;;;18.98;13.80;;;15.20;91.30;;;;;;5058528;28;20316;-79
2021/09/08 02:50:39;;;;;;;17.60;13.73;;;15.20;90.40;;;;;;5055780;28;20233;-78
2021/09/08 02:53:05;;;;;;;17.17;14.73;;;15.30;90.00;;;;;;5056030;28;20237;-79
2021/09/08 02:55:32;;;;;;;16.58;13.57;;;15.30;89.50;;;;;;5056987;28;20206;-78
2021/09/08 02:57:59;;;;;;;16.60;13.32;;;15.40;90.00;;;;;;5056272;28;20692;-77
2021/09/08 03:00:26;;;;;;;17.88;13.88;;;15.40;88.30;;;;;;5055626;28;20207;-79
2021/09/08 03:02:53;;;;;;;15.82;12.90;;;15.40;88.30;;;;;;5056404;28;20616;-79
2021/09/08 03:05:20;;;;;;;17.05;13.65;;;15.30;88.10;;;;;;5055238;28;20250;-78
2021/09/08 03:07:48;;;;;;;16.08;14.25;;;15.30;88.40;;;;;;5056024;28;20294;-79
2021/09/08 03:10:15;;;;;;;18.83;13.52;;;15.30;88.20;;;;;;5054837;28;20338;-78
2021/09/08 03:12:42;;;;;;;17.00;14.95;;;15.30;88.40;;;;;;5055099;28;20305;-79
2021/09/08 03:15:10;;;;;;;15.57;13.98;;;15.20;88.60;;;;;;5055100;28;20266;-78
2021/09/08 03:17:37;;;;;;;15.80;14.10;;;15.20;89.50;;;;;;5055198;28;20293;-78
2021/09/08 03:20:05;;;;;;;17.90;14.75;;;15.20;89.40;;;;;;5035623;28;20294;-79
2021/09/08 03:22:32;;;;;;;16.00;13.80;;;15.10;90.00;;;;;;5035661;28;20261;-78
2021/09/08 03:25:00;;;;;;;17.02;14.60;;;15.10;90.40;;;;;;5054059;28;20272;-78
2021/09/08 03:27:27;;;;;;;17.20;14.20;;;15.10;90.00;;;;;;5055005;28;20594;-78
2021/09/08 03:29:54;;;;;;;18.30;14.90;;;15.10;89.40;;;;;;5056873;28;20230;-78
2021/09/08 03:32:21;;;;;;;19.23;14.55;;;15.00;90.10;;;;;;5065209;28;20689;-79
2021/09/08 03:34:48;;;;;;;23.15;16.17;;;15.00;90.80;;;;;;5060145;28;20226;-79
2021/09/08 03:37:14;;;;;;;16.95;14.40;;;14.90;90.80;;;;;;5056070;28;20234;-77
2021/09/08 03:39:41;;;;;;;16.20;14.50;;;14.90;91.40;;;;;;5054896;28;20742;-78
2021/09/08 03:42:10;;;;;;;16.00;14.23;;;14.80;92.60;;;;;;5055074;28;20275;-78
2021/09/08 03:44:37;;;;;;;18.38;14.88;;;14.70;93.20;;;;;;5054339;28;20313;-78
2021/09/08 03:47:04;;;;;;;22.10;16.05;;;14.70;93.40;;;;;;5055567;28;20477;-79
2021/09/08 03:49:31;;;;;;;19.60;15.82;;;14.60;94.50;;;;;;5055356;28;20206;-78
2021/09/08 03:51:58;;;;;;;17.40;15.60;;;14.60;95.00;;;;;;5058270;28;20216;-78
2021/09/08 03:54:25;;;;;;;20.15;15.32;;;14.50;95.70;;;;;;5057980;28;20259;-77
2021/09/08 03:56:52;;;;;;;18.17;15.45;;;14.50;95.90;;;;;;5058212;28;20628;-78
2021/09/08 03:59:21;;;;;;;19.63;15.70;;;14.40;96.70;;;;;;5056364;28;20208;-79
2021/09/08 04:01:48;;;;;;;20.95;16.90;;;14.40;96.70;;;;;;5056012;28;20206;-79
2021/09/08 04:04:15;;;;;;;18.75;16.77;;;14.30;97.50;;;;;;5056376;28;20315;-79
2021/09/08 04:06:42;;;;;;;20.48;17.60;;;14.30;98.20;;;;;;5056826;28;20213;-79
2021/09/08 04:09:09;;;;;;;20.88;16.95;;;14.30;98.40;;;;;;5058947;28;20233;-79
2021/09/08 04:11:36;;;;;;;26.13;17.00;;;14.20;98.40;;;;;;5069254;28;20248;-78
2021/09/08 04:14:04;;;;;;;20.42;16.33;;;14.20;98.50;;;;;;5060142;28;20238;-78
2021/09/08 04:16:32;;;;;;;18.70;15.52;;;14.10;99.00;;;;;;5064819;28;20224;-78
2021/09/08 04:18:59;;;;;;;20.15;18.05;;;14.10;99.40;;;;;;5058619;28;20304;-79
2021/09/08 04:21:26;;;;;;;21.40;16.45;;;14.10;99.90;;;;;;5057627;28;20205;-79
2021/09/08 04:23:52;;;;;;;19.60;16.80;;;14.10;99.90;;;;;;5056384;28;20317;-78
2021/09/08 04:26:20;;;;;;;21.65;17.42;;;14.10;99.90;;;;;;5054244;28;20310;-79
2021/09/08 04:28:47;;;;;;;18.58;16.10;;;14.10;99.90;;;;;;5054187;28;20317;-79
2021/09/08 04:31:14;;;;;;;20.15;17.13;;;14.10;99.90;;;;;;5054260;28;20206;-78
2021/09/08 04:33:42;;;;;;;18.67;16.73;;;14.00;99.80;;;;;;5054257;28;20321;-79
2021/09/08 04:36:09;;;;;;;19.08;16.73;;;14.00;99.90;;;;;;5055422;28;20296;-78
2021/09/08 04:38:37;;;;;;;22.00;17.75;;;14.00;99.90;;;;;;5060637;28;20201;-79
2021/09/08 04:41:04;;;;;;;21.25;17.98;;;14.00;99.90;;;;;;5076453;28;20221;-79
2021/09/08 04:43:31;;;;;;;22.90;18.08;;;14.00;99.90;;;;;;5077216;28;20224;-78
2021/09/08 04:45:58;;;;;;;23.70;18.20;;;14.00;99.90;;;;;;5075860;28;20202;-78
2021/09/08 04:48:25;;;;;;;21.30;17.85;;;14.00;99.90;;;;;;5055455;28;20313;-78
2021/09/08 04:50:53;;;;;;;21.40;17.75;;;14.00;99.90;;;;;;5054774;28;20696;-79
2021/09/08 04:53:20;;;;;;;23.15;17.42;;;13.90;99.90;;;;;;5054018;28;20265;-79
2021/09/08 04:55:47;;;;;;;22.00;18.42;;;13.90;99.90;;;;;;5054219;28;20256;-79
2021/09/08 04:58:15;;;;;;;19.60;16.85;;;14.00;99.90;;;;;;5053893;28;20502;-78
2021/09/08 05:00:42;;;;;;;20.42;17.17;;;14.00;99.90;;;;;;5034296;28;20215;-79
2021/09/08 05:03:09;;;;;;;19.25;16.95;;;14.00;99.90;;;;;;5033701;28;20644;-78
2021/09/08 05:05:35;;;;;;;20.67;16.98;;;14.00;99.90;;;;;;5053684;28;20236;-78
2021/09/08 05:08:04;;;;;;;21.05;16.95;;;14.00;99.90;;;;;;5053839;28;20254;-78
2021/09/08 05:10:31;;;;;;;17.73;15.77;;;14.00;99.90;;;;;;5053428;28;20646;-77
2021/09/08 05:12:58;;;;;;;17.92;15.50;;;14.00;99.90;;;;;;5054037;28;20777;-77
2021/09/08 05:15:25;;;;;;;18.98;16.27;;;14.00;99.90;;;;;;5053785;28;20207;-79
2021/09/08 05:17:52;;;;;;;20.17;16.30;;;14.10;99.90;;;;;;5057575;28;20310;-78
2021/09/08 05:20:20;;;;;;;18.60;16.63;;;14.10;99.90;;;;;;5057299;28;20214;-79
2021/09/08 05:22:47;;;;;;;18.60;16.02;;;14.40;99.60;;;;;;5059935;28;20270;-79
2021/09/08 05:25:15;;;;;;;19.67;15.73;;;14.60;97.80;;;;;;5058721;28;20280;-79
2021/09/08 05:27:42;;;;;;;16.47;14.73;;;14.70;95.70;;;;;;5058189;28;20298;-78
2021/09/08 05:30:10;;;;;;;18.10;15.50;;;14.80;94.10;;;;;;5057312;28;20537;-78
2021/09/08 05:32:37;;;;;;;17.92;15.27;;;14.90;93.30;;;;;;5057710;28;20528;-78
2021/09/08 05:35:04;;;;;;;16.60;14.52;;;15.00;92.80;;;;;;5057093;28;20281;-79
2021/09/08 05:37:31;;;;;;;15.68;13.98;;;15.10;91.80;;;;;;5057939;28;20302;-80
2021/09/08 05:39:58;;;;;;;17.80;14.40;;;15.20;91.00;;;;;;5057016;28;20610;-79
2021/09/08 05:42:30;;;;;;;16.30;14.57;;;15.40;90.00;;;;;;5058400;28;20510;-78
2021/09/08 05:44:57;;;;;;;15.95;13.75;;;15.50;88.50;;;;;;5057700;28;20309;-78
2021/09/08 05:47:24;;;;;;;17.65;14.10;;;15.60;86.10;;;;;;5057362;28;20203;-78
2021/09/08 05:49:50;;;;;;;18.50;14.50;;;15.80;84.60;;;;;;5057083;28;20635;-78
2021/09/08 05:52:17;;;;;;;16.23;14.52;;;15.90;82.20;;;;;;5057663;28;20522;-77
2021/09/08 05:54:44;;;;;;;18.10;13.77;;;16.00;81.70;;;;;;5057063;28;20598;-77
2021/09/08 05:57:12;;;;;;;17.83;14.77;;;16.10;80.70;;;;;;5057748;28;20990;-78
2021/09/08 05:59:40;;;;;;;16.63;14.90;;;16.20;79.20;;;;;;5056791;28;20475;-78
2021/09/08 06:02:07;;;;;;;17.03;15.00;;;16.00;80.20;;;;;;5057099;28;20539;-79
2021/09/08 06:04:34;;;;;;;18.13;15.33;;;15.90;81.60;;;;;;5056006;28;20546;-79
2021/09/08 06:07:01;;;;;;;19.00;15.50;;;15.80;82.90;;;;;;5060284;28;20449;-78
2021/09/08 06:09:27;;;;;;;19.40;16.20;;;15.80;83.20;;;;;;5065719;28;20540;-78
2021/09/08 06:11:57;;;;;;;18.37;15.43;;;15.70;84.30;;;;;;5062293;28;20453;-78
2021/09/08 06:14:30;;;;;;;20.50;17.47;;;15.60;85.00;;;;;;5060202;28;20465;-78
2021/09/08 06:16:59;;;;;;;18.30;15.30;;;15.70;85.70;;;;;;5057768;28;20455;-78
2021/09/08 06:19:26;;;;;;;17.80;15.47;;;15.80;84.70;;;;;;5055809;28;20859;-78
2021/09/08 06:21:53;;;;;;;17.93;14.60;;;15.80;83.80;;;;;;5055815;28;20465;-78
2021/09/08 06:24:20;;;;;;;21.07;16.30;;;15.90;82.50;;;;;;5055528;28;20546;-78
2021/09/08 06:26:47;;;;;;;19.25;16.30;;;16.00;82.20;;;;;;5055440;28;20587;-78
2021/09/08 06:29:14;;;;;;;16.77;14.60;;;16.10;81.80;;;;;;5054158;28;20255;-78
2021/09/08 06:31:41;;;;;;;19.00;14.87;;;16.10;80.30;;;;;;5056365;28;20495;-79
2021/09/08 06:34:09;;;;;;;21.33;15.80;;;16.30;79.00;;;;;;5056097;28;20484;-77
2021/09/08 06:36:37;;;;;;;21.57;15.57;;;16.30;78.20;;;;;;5055652;28;20449;-78
2021/09/08 06:39:04;;;;;;;18.00;15.80;;;16.40;76.50;;;;;;5055294;28;20504;-78
2021/09/08 06:41:31;;;;;;;17.40;15.47;;;16.50;76.20;;;;;;5054984;28;20462;-78
2021/09/08 06:43:58;;;;;;;19.53;15.80;;;16.60;76.40;;;;;;5053038;28;20501;-78
2021/09/08 06:46:25;;;;;;;15.83;14.17;;;16.60;75.20;;;;;;5055140;28;20429;-78
2021/09/08 06:48:51;;;;;;;16.80;14.50;;;16.70;75.20;;;;;;5055399;28;20547;-79
2021/09/08 06:51:20;;;;;;;18.70;14.77;;;16.70;73.70;;;;;;5056156;28;20440;-78
2021/09/08 06:53:47;;;;;;;19.27;14.57;;;16.80;73.80;;;;;;5055827;28;20539;-78
2021/09/08 06:56:13;;;;;;;18.00;15.00;;;16.90;73.90;;;;;;5056506;28;20537;-79
2021/09/08 06:58:40;;;;;;;19.30;14.20;;;17.00;72.10;;;;;;5055556;28;20461;-78
2021/09/08 07:01:07;;;;;;;19.53;14.53;;;17.10;72.60;;;;;;5054254;28;20536;-78
2021/09/08 07:03:34;;;;;;;18.63;15.20;;;17.20;72.00;;;;;;5054737;28;20573;-78
2021/09/08 07:06:01;;;;;;;16.70;14.10;;;17.20;71.10;;;;;;5054389;28;20428;-79
2021/09/08 07:08:29;;;;;;;14.67;13.17;;;17.30;71.50;;;;;;5054394;28;20459;-78
2021/09/08 07:10:56;;;;;;;17.37;13.27;;;17.40;70.90;;;;;;5054491;28;20460;-78
2021/09/08 07:13:23;;;;;;;18.83;14.83;;;17.60;70.10;;;;;;5055342;28;20481;-78
2021/09/08 07:15:50;;;;;;;18.13;13.67;;;17.70;68.70;;;;;;5054707;28;20469;-78
2021/09/08 07:18:17;;;;;;;17.00;13.60;;;17.70;68.80;;;;;;5054342;28;20573;-78
2021/09/08 07:20:44;;;;;;;15.00;13.50;;;17.80;67.90;;;;;;5055175;28;20486;-78
2021/09/08 07:23:11;;;;;;;16.87;13.47;;;17.90;67.50;;;;;;5054004;28;20915;-78
2021/09/08 07:25:40;;;;;;;15.40;13.60;;;18.00;67.40;;;;;;5054396;28;20534;-78
2021/09/08 07:28:07;;;;;;;19.60;13.67;;;18.10;66.00;;;;;;5054059;28;20459;-79
2021/09/08 07:30:34;;;;;;;14.30;12.23;;;18.30;66.20;;;;;;5054245;28;20547;-78
2021/09/08 07:33:00;;;;;;;15.70;12.77;;;18.40;66.30;;;;;;5064426;28;20486;-79
2021/09/08 07:35:28;;;;;;;15.47;13.30;;;18.60;63.60;;;;;;5068989;28;20471;-78
2021/09/08 07:37:57;;;;;;;19.53;13.53;;;18.60;62.60;;;;;;5057796;28;20429;-78
2021/09/08 07:40:25;;;;;;;14.10;12.67;;;18.70;62.10;;;;;;5051049;28;20912;-78
2021/09/08 07:42:54;;;;;;;17.40;12.60;;;18.80;62.20;;;;;;5065376;28;20495;-79
2021/09/08 07:45:21;;;;;;;16.33;12.67;;;18.90;62.70;;;;;;5056404;28;20479;-77
2021/09/08 07:47:48;;;;;;;14.03;11.60;;;19.00;61.40;;;;;;5054491;28;20503;-78
2021/09/08 07:50:15;;;;;;;13.57;12.00;;;19.10;61.10;;;;;;5035969;28;20521;-78
2021/09/08 07:52:42;;;;;;;14.10;12.10;;;19.20;60.10;;;;;;5043965;28;20534;-79
2021/09/08 07:55:11;;;;;;;13.63;11.70;;;19.20;60.40;;;;;;5039182;28;20530;-78
2021/09/08 07:57:37;;;;;;;14.37;12.10;;;19.50;59.30;;;;;;5054790;28;20453;-78
2021/09/08 08:00:08;;;;;;;15.07;12.10;;;19.50;58.10;;;;;;5057314;28;20506;-79
2021/09/08 08:02:44;;;;;;;18.87;11.50;;;19.70;56.80;;;;;;5055144;28;20449;-78
2021/09/08 08:05:11;;;;;;;13.77;12.27;;;19.80;57.20;;;;;;5054063;28;20995;-78
2021/09/08 08:07:38;;;;;;;15.20;11.27;;;19.90;56.20;;;;;;5053440;28;20552;-79
2021/09/08 08:10:07;;;;;;;12.30;11.00;;;20.20;56.10;;;;;;5054568;28;20680;-78
2021/09/08 08:12:34;;;;;;;15.43;11.00;;;20.20;54.80;;;;;;5056407;28;20464;-77
2021/09/08 08:15:10;;;;;;;13.30;10.70;;;20.20;53.80;;;;;;5065017;28;20497;-79
2021/09/08 08:17:37;;;;;;;11.47;10.27;;;20.30;52.20;;;;;;5043352;28;20443;-79
2021/09/08 08:20:08;;;;;;;11.53;10.30;;;20.30;51.60;;;;;;5042317;28;20974;-79
2021/09/08 08:22:35;;;;;;;11.60;9.63;;;20.40;50.90;;;;;;5055463;28;20864;-79
2021/09/08 08:25:02;;;;;;;11.93;10.13;;;20.50;50.10;;;;;;5056703;28;20526;-79
2021/09/08 08:27:29;;;;;;;11.50;9.90;;;20.60;49.50;;;;;;5055847;28;20914;-78
2021/09/08 08:29:55;;;;;;;11.50;10.17;;;20.60;49.40;;;;;;5057071;28;20885;-78
2021/09/08 08:32:24;;;;;;;11.93;9.23;;;20.70;48.00;;;;;;5055985;28;20533;-77
2021/09/08 08:34:51;;;;;;;11.73;9.40;;;20.80;47.10;;;;;;5058270;28;20469;-77
2021/09/08 08:37:18;;;;;;;11.87;10.60;;;20.90;46.10;;;;;;5053535;28;20527;-77
2021/09/08 08:39:46;;;;;;;11.43;9.50;;;20.80;46.00;;;;;;5042562;28;20430;-78
2021/09/08 08:42:20;;;;;;;11.30;9.43;;;20.90;45.90;;;;;;5056143;28;20531;-78
2021/09/08 08:44:49;;;;;;;12.00;8.63;;;21.20;45.70;;;;;;5051244;28;20570;-78
2021/09/08 08:47:17;;;;;;;10.17;9.10;;;21.30;44.40;;;;;;5055392;28;20466;-77
2021/09/08 08:49:46;;;;;;;9.57;8.50;;;21.30;44.20;;;;;;5057721;28;20756;-79
2021/09/08 08:52:14;;;;;;;12.07;9.10;;;21.40;43.40;;;;;;5053618;28;20495;-78
2021/09/08 08:54:41;;;;;;;10.03;9.13;;;21.40;43.00;;;;;;5054561;28;20982;-78
2021/09/08 08:57:13;;;;;;;10.43;9.30;;;21.60;43.10;;;;;;5055795;28;20542;-78
2021/09/08 08:59:41;;;;;;;9.60;8.20;;;21.60;43.00;;;;;;5057616;28;20483;-78
2021/09/08 09:02:20;;;;;;;9.20;8.30;;;21.80;42.50;;;;;;5057066;28;20429;-77
2021/09/08 09:04:48;;;;;;;11.00;8.77;;;21.90;41.40;;;;;;5036146;28;20468;-77
2021/09/08 09:07:23;;;;;;;11.13;8.67;;;21.90;40.60;;;;;;5038571;28;20438;-77
2021/09/08 09:09:51;;;;;;;9.80;7.87;;;22.10;40.80;;;;;;5053357;28;20932;-78
2021/09/08 09:12:19;;;;;;;10.20;8.13;;;22.20;39.10;;;;;;5055012;28;20463;-77
2021/09/08 09:14:50;;;;;;;10.67;8.60;;;22.20;39.30;;;;;;5057025;28;20461;-77
2021/09/08 09:17:18;;;;;;;8.97;8.10;;;22.30;38.60;;;;;;5047943;28;20467;-78
2021/09/08 09:19:49;;;;;;;11.60;8.73;;;22.60;38.00;;;;;;5065206;28;20505;-78
2021/09/08 09:22:18;;;;;;;8.77;7.90;;;22.60;37.50;;;;;;5059975;28;20466;-78
2021/09/08 09:24:46;;;;;;;9.00;8.10;;;22.60;37.70;;;;;;5064210;28;20455;-78
2021/09/08 09:27:14;;;;;;;10.20;8.20;;;22.70;37.30;;;;;;5060794;28;20461;-78
2021/09/08 09:29:45;;;;;;;8.60;7.80;;;22.90;36.40;;;;;;5057891;28;20470;-78
2021/09/08 09:32:12;;;;;;;10.13;9.13;;;22.90;36.40;;;;;;5053394;28;20502;-77
2021/09/08 09:34:41;;;;;;;9.40;6.80;;;23.00;35.90;;;;;;5063293;28;20970;-78
2021/09/08 09:37:10;;;;;;;10.00;7.43;;;23.00;35.40;;;;;;5061993;28;20842;-78
2021/09/08 09:39:39;;;;;;;13.17;8.63;;;22.80;35.00;;;;;;5067171;28;20428;-78
2021/09/08 09:42:11;;;;;;;10.10;7.73;;;23.00;35.30;;;;;;5062741;28;20445;-78
2021/09/08 09:44:39;;;;;;;8.93;7.27;;;23.10;35.00;;;;;;5062700;28;20480;-77
2021/09/08 09:47:06;;;;;;;10.20;7.83;;;23.00;34.60;;;;;;5062623;28;20454;-77
2021/09/08 09:49:34;;;;;;;9.23;7.93;;;23.00;35.00;;;;;;5064073;28;20513;-78
2021/09/08 09:52:03;;;;;;;10.67;7.93;;;23.00;33.90;;;;;;5063453;28;20426;-78
2021/09/08 09:54:32;;;;;;;11.00;8.20;;;23.00;34.80;;;;;;5060249;28;20569;-78
2021/09/08 09:57:00;;;;;;;8.23;7.47;;;23.20;34.40;;;;;;5060529;28;20434;-78
2021/09/08 09:59:27;;;;;;;10.37;8.27;;;23.20;35.00;;;;;;5061546;28;20508;-78
2021/09/08 10:01:55;;;;;;;8.53;7.00;;;23.40;34.40;;;;;;5060887;28;20449;-78
2021/09/08 10:04:21;;;;;;;9.90;7.97;;;23.50;34.00;;;;;;5063212;28;20447;-77
2021/09/08 10:06:51;;;;;;;8.00;7.20;;;23.40;34.70;;;;;;5074972;28;20428;-79
2021/09/08 10:09:20;;;;;;;8.17;7.13;;;23.30;33.30;;;;;;5076948;28;20525;-78
2021/09/08 10:11:52;;;;;;;10.40;8.13;;;23.40;34.20;;;;;;5052707;28;20504;-78
2021/09/08 10:14:24;;;;;;;9.77;8.00;;;23.70;34.10;;;;;;5051445;28;20546;-78
2021/09/08 10:16:52;;;;;;;16.43;7.80;;;23.70;34.00;;;;;;5049741;28;20464;-77
2021/09/08 10:19:23;;;;;;;9.43;7.93;;;23.50;34.60;;;;;;5052798;28;20442;-77
2021/09/08 10:21:52;;;;;;;8.03;7.23;;;23.60;34.60;;;;;;5053432;28;20454;-77
2021/09/08 10:24:20;;;;;;;8.43;7.63;;;23.50;34.90;;;;;;5049015;28;20503;-78
2021/09/08 10:26:49;;;;;;;8.93;7.77;;;23.50;35.20;;;;;;5053668;28;20451;-77
2021/09/08 10:29:16;;;;;;;9.47;7.90;;;23.80;34.90;;;;;;5056730;28;20560;-77
2021/09/08 10:31:47;;;;;;;8.33;7.50;;;24.10;35.00;;;;;;5064300;28;20439;-79
2021/09/08 10:34:16;;;;;;;11.03;8.57;;;24.40;33.90;;;;;;5058626;28;20496;-78
2021/09/08 10:36:44;;;;;;;10.83;7.50;;;24.20;33.70;;;;;;5055591;28;20435;-78
2021/09/08 10:39:12;;;;;;;17.70;8.60;;;24.20;34.50;;;;;;5059424;28;20427;-78
2021/09/08 10:41:42;;;;;;;10.23;8.40;;;24.40;35.10;;;;;;5060052;28;20471;-77
2021/09/08 10:44:11;;;;;;;9.17;8.00;;;24.30;33.40;;;;;;5051480;28;20471;-77
2021/09/08 10:46:55;;;;;;;11.13;9.00;;;24.20;35.60;;;;;;5050294;28;20485;-78
2021/09/08 10:49:47;;;;;;;8.57;7.70;;;24.30;34.60;;;;;;5062478;28;20506;-79
2021/09/08 10:52:36;;;;;;;8.40;7.60;;;24.40;34.40;;;;;;5058151;28;20432;-78
2021/09/08 10:55:14;;;;;;;9.90;8.00;;;24.40;34.40;;;;;;5054805;28;20452;-79
2021/09/08 10:58:03;;;;;;;9.13;8.23;;;24.80;34.20;;;;;;5064311;28;20510;-78
2021/09/08 11:00:36;;;;;;;9.27;8.27;;;24.70;33.50;;;;;;5053429;28;20925;-78
2021/09/08 11:03:04;;;;;;;9.07;7.90;;;24.50;34.60;;;;;;5057838;28;20433;-78
2021/09/08 11:05:31;;;;;;;8.40;6.93;;;24.60;33.80;;;;;;5057204;28;20428;-77
2021/09/08 11:07:58;;;;;;;12.13;8.07;;;24.60;34.30;;;;;;5054895;28;21025;-77
2021/09/08 11:10:29;;;;;;;11.60;8.50;;;24.60;33.90;;;;;;5040673;28;20469;-78
2021/09/08 11:12:59;;;;;;;8.03;7.27;;;24.50;33.40;;;;;;5048064;28;20459;-77
2021/09/08 11:15:36;;;;;;;8.43;7.33;;;24.60;34.30;;;;;;5056873;28;20482;-79
2021/09/08 11:18:05;;;;;;;9.27;7.63;;;25.00;33.10;;;;;;5061505;28;20445;-77
2021/09/08 11:20:33;;;;;;;8.70;7.90;;;25.00;33.10;;;;;;5077085;28;20396;-76
2021/09/08 11:23:02;;;;;;;8.83;7.70;;;25.00;33.10;;;;;;5078119;28;20524;-76
2021/09/08 11:25:34;;;;;;;8.87;7.30;;;25.00;33.10;;;;;;5067055;28;20871;-78
2021/09/08 11:28:02;;;;;;;8.17;7.40;;;25.00;33.10;;;;;;5059232;28;20433;-78
2021/09/08 11:30:35;;;;;;;11.50;6.87;;;25.10;33.20;;;;;;5059363;28;20492;-78
2021/09/08 11:33:04;;;;;;;11.17;7.93;;;25.20;33.20;;;;;;5059688;28;20511;-79
2021/09/08 11:35:40;;;;;;;9.47;7.63;;;25.30;33.30;;;;;;5057218;28;20887;-77
2021/09/08 11:38:13;;;;;;;8.33;7.53;;;25.40;32.10;;;;;;5055025;28;20518;-77
2021/09/08 11:40:42;;;;;;;10.53;7.70;;;25.60;32.60;;;;;;5050225;28;21030;-77
2021/09/08 11:43:09;;;;;;;7.60;6.90;;;25.30;32.30;;;;;;5055049;28;20465;-78
2021/09/08 11:45:38;;;;;;;8.97;8.07;;;25.50;33.10;;;;;;5055890;28;20479;-78
2021/09/08 11:48:07;;;;;;;8.13;7.33;;;25.60;31.70;;;;;;5057584;28;20487;-78
2021/09/08 11:50:34;;;;;;;8.30;7.50;;;25.70;31.90;;;;;;5052550;28;20524;-77
2021/09/08 11:55:44;;;;;;;8.73;7.97;;;25.40;31.50;;;;;;5058133;28;20485;-78
2021/09/08 11:58:17;;;;;;;9.70;8.40;;;25.50;32.20;;;;;;5043407;28;20479;-79
2021/09/08 12:00:56;;;;;;;11.20;8.23;;;25.60;32.50;;;;;;5053382;28;20535;-78
2021/09/08 12:03:23;;;;;;;9.60;7.63;;;25.60;31.90;;;;;;5062691;28;20983;-77
2021/09/08 12:05:50;;;;;;;7.80;6.50;;;25.60;31.80;;;;;;5054418;28;20474;-78
2021/09/08 12:08:20;;;;;;;8.87;7.80;;;25.80;31.20;;;;;;5054033;28;20956;-78
2021/09/08 12:10:47;;;;;;;8.93;8.13;;;25.90;31.20;;;;;;5053733;28;20488;-77
2021/09/08 12:13:27;;;;;;;9.17;8.20;;;25.70;32.00;;;;;;5056362;28;20460;-78
2021/09/08 12:15:56;;;;;;;8.57;7.77;;;25.90;30.50;;;;;;5076021;28;20447;-77
2021/09/08 12:18:23;;;;;;;10.07;8.10;;;26.20;30.60;;;;;;5067708;28;20461;-78
2021/09/08 12:20:50;;;;;;;9.20;7.80;;;26.40;30.70;;;;;;5053200;28;20496;-77
2021/09/08 12:23:25;;;;;;;8.57;7.70;;;26.30;30.00;;;;;;5052539;28;20519;-77
2021/09/08 12:26:06;;;;;;;8.70;7.80;;;25.90;31.10;;;;;;5052954;28;20431;-76
2021/09/08 12:28:34;;;;;;;9.13;7.80;;;25.90;31.00;;;;;;5044769;28;20514;-77
2021/09/08 12:31:19;;;;;;;12.43;8.30;;;25.90;31.00;;;;;;5039797;28;20543;-77
2021/09/08 12:33:56;;;;;;;8.50;7.57;;;25.80;31.00;;;;;;5045958;28;20555;-77
2021/09/08 12:36:24;;;;;;;8.77;7.87;;;26.10;30.80;;;;;;5053235;28;20466;-77
2021/09/08 12:38:52;;;;;;;8.17;7.37;;;26.20;30.40;;;;;;5050780;28;20467;-78
2021/09/08 12:41:21;;;;;;;9.10;7.97;;;26.20;30.20;;;;;;5045881;28;20467;-77
2021/09/08 12:43:59;;;;;;;8.90;7.60;;;26.30;30.60;;;;;;5043888;28;20463;-77
2021/09/08 12:46:42;;;;;;;8.90;8.00;;;26.70;30.50;;;;;;5044629;28;20441;-77
2021/09/08 12:49:13;;;;;;;9.27;8.37;;;26.70;29.70;;;;;;5051089;28;20511;-77